sensor_id;sensor_type;location;lat;lon;timestamp;P1;durP1;ratioP1;P2;durP2;ratioP2
47239;SDS011;32978;53.586;10.052;2023-08-06T00:01:40;6.22;;;5.72;;
47239;SDS011;32978;53.586;10.052;2023-08-06T00:06:36;6.40;;;5.80;;
47239;SDS011;32978;53.586;10.052;2023-08-06T00:11:32;6.70;;;6.10;;
47239;SDS011;32978;53.586;10.052;2023-08-06T00:16:29;7.30;;;6.60;;
47239;SDS011;32978;53.586;10.052;2023-08-06T00:21:25;7.22;;;6.63;;
47239;SDS011;32978;53.586;10.052;2023-08-06T00:26:21;7.55;;;6.95;;
47239;SDS011;32978;53.586;10.052;2023-08-06T00:31:18;9.75;;;7.55;;
47239;SDS011;32978;53.586;10.052;2023-08-06T00:36:14;6.88;;;6.38;;
47239;SDS011;32978;53.586;10.052;2023-08-06T00:41:10;7.70;;;6.97;;
47239;SDS011;32978;53.586;10.052;2023-08-06T00:46:07;7.30;;;6.70;;
47239;SDS011;32978;53.586;10.052;2023-08-06T00:51:03;7.07;;;6.38;;
47239;SDS011;32978;53.586;10.052;2023-08-06T00:55:59;8.30;;;7.50;;
47239;SDS011;32978;53.586;10.052;2023-08-06T01:06:55;7.68;;;7.07;;
47239;SDS011;32978;53.586;10.052;2023-08-06T01:17:11;7.80;;;7.13;;
47239;SDS011;32978;53.586;10.052;2023-08-06T01:22:08;8.50;;;7.80;;
47239;SDS011;32978;53.586;10.052;2023-08-06T01:27:09;9.20;;;8.27;;
47239;SDS011;32978;53.586;10.052;2023-08-06T01:32:08;9.10;;;8.30;;
47239;SDS011;32978;53.586;10.052;2023-08-06T01:37:06;9.38;;;8.43;;
47239;SDS011;32978;53.586;10.052;2023-08-06T01:42:03;9.45;;;8.60;;
47239;SDS011;32978;53.586;10.052;2023-08-06T01:46:59;8.50;;;7.80;;
47239;SDS011;32978;53.586;10.052;2023-08-06T01:51:56;8.63;;;7.88;;
47239;SDS011;32978;53.586;10.052;2023-08-06T01:56:52;9.95;;;8.82;;
47239;SDS011;32978;53.586;10.052;2023-08-06T02:01:48;8.77;;;8.07;;
47239;SDS011;32978;53.586;10.052;2023-08-06T02:06:45;9.93;;;8.93;;
47239;SDS011;32978;53.586;10.052;2023-08-06T02:11:41;10.00;;;9.10;;
47239;SDS011;32978;53.586;10.052;2023-08-06T02:16:37;9.82;;;8.93;;
47239;SDS011;32978;53.586;10.052;2023-08-06T02:21:33;8.73;;;7.85;;
47239;SDS011;32978;53.586;10.052;2023-08-06T02:26:30;9.45;;;8.55;;
47239;SDS011;32978;53.586;10.052;2023-08-06T02:31:26;9.13;;;8.23;;
47239;SDS011;32978;53.586;10.052;2023-08-06T02:36:22;9.80;;;8.90;;
47239;SDS011;32978;53.586;10.052;2023-08-06T02:41:19;9.52;;;8.57;;
47239;SDS011;32978;53.586;10.052;2023-08-06T02:46:15;9.80;;;9.00;;
47239;SDS011;32978;53.586;10.052;2023-08-06T02:51:11;9.77;;;8.93;;
47239;SDS011;32978;53.586;10.052;2023-08-06T02:56:08;10.55;;;9.48;;
47239;SDS011;32978;53.586;10.052;2023-08-06T03:01:05;9.45;;;8.52;;
47239;SDS011;32978;53.586;10.052;2023-08-06T03:06:02;9.23;;;8.43;;
47239;SDS011;32978;53.586;10.052;2023-08-06T03:10:58;10.50;;;8.38;;
47239;SDS011;32978;53.586;10.052;2023-08-06T03:15:55;9.32;;;8.48;;
47239;SDS011;32978;53.586;10.052;2023-08-06T03:20:51;10.55;;;9.43;;
47239;SDS011;32978;53.586;10.052;2023-08-06T03:25:48;10.23;;;9.15;;
47239;SDS011;32978;53.586;10.052;2023-08-06T03:30:45;9.85;;;8.82;;
47239;SDS011;32978;53.586;10.052;2023-08-06T03:35:41;12.35;;;10.10;;
47239;SDS011;32978;53.586;10.052;2023-08-06T03:40:37;10.05;;;9.15;;
47239;SDS011;32978;53.586;10.052;2023-08-06T03:45:34;10.25;;;8.57;;
47239;SDS011;32978;53.586;10.052;2023-08-06T03:50:30;9.77;;;8.88;;
47239;SDS011;32978;53.586;10.052;2023-08-06T03:55:26;10.52;;;8.35;;
47239;SDS011;32978;53.586;10.052;2023-08-06T04:00:23;10.75;;;9.85;;
47239;SDS011;32978;53.586;10.052;2023-08-06T04:05:19;9.93;;;9.05;;
47239;SDS011;32978;53.586;10.052;2023-08-06T04:10:15;12.07;;;9.20;;
47239;SDS011;32978;53.586;10.052;2023-08-06T04:15:12;10.68;;;9.65;;
47239;SDS011;32978;53.586;10.052;2023-08-06T04:20:08;10.13;;;9.23;;
47239;SDS011;32978;53.586;10.052;2023-08-06T04:25:05;9.68;;;8.68;;
47239;SDS011;32978;53.586;10.052;2023-08-06T04:30:01;10.45;;;9.55;;
47239;SDS011;32978;53.586;10.052;2023-08-06T04:34:57;10.88;;;9.88;;
47239;SDS011;32978;53.586;10.052;2023-08-06T04:39:54;9.60;;;8.80;;
47239;SDS011;32978;53.586;10.052;2023-08-06T04:44:50;11.15;;;10.15;;
47239;SDS011;32978;53.586;10.052;2023-08-06T04:49:47;11.57;;;10.10;;
47239;SDS011;32978;53.586;10.052;2023-08-06T04:54:43;17.17;;;11.13;;
47239;SDS011;32978;53.586;10.052;2023-08-06T04:59:39;9.80;;;8.90;;
47239;SDS011;32978;53.586;10.052;2023-08-06T05:04:36;11.55;;;10.40;;
47239;SDS011;32978;53.586;10.052;2023-08-06T05:09:32;11.07;;;10.07;;
47239;SDS011;32978;53.586;10.052;2023-08-06T05:14:29;12.07;;;10.07;;
47239;SDS011;32978;53.586;10.052;2023-08-06T05:19:25;10.38;;;9.35;;
47239;SDS011;32978;53.586;10.052;2023-08-06T05:24:21;11.13;;;9.98;;
47239;SDS011;32978;53.586;10.052;2023-08-06T05:29:18;11.57;;;10.38;;
47239;SDS011;32978;53.586;10.052;2023-08-06T05:34:14;12.38;;;11.15;;
47239;SDS011;32978;53.586;10.052;2023-08-06T05:39:10;13.95;;;11.18;;
47239;SDS011;32978;53.586;10.052;2023-08-06T05:44:07;11.10;;;10.10;;
47239;SDS011;32978;53.586;10.052;2023-08-06T05:49:03;26.10;;;12.20;;
47239;SDS011;32978;53.586;10.052;2023-08-06T05:54:01;10.68;;;9.68;;
47239;SDS011;32978;53.586;10.052;2023-08-06T05:58:57;15.27;;;11.95;;
47239;SDS011;32978;53.586;10.052;2023-08-06T06:03:56;12.70;;;11.00;;
47239;SDS011;32978;53.586;10.052;2023-08-06T06:08:52;14.40;;;11.10;;
47239;SDS011;32978;53.586;10.052;2023-08-06T06:13:52;13.25;;;10.45;;
47239;SDS011;32978;53.586;10.052;2023-08-06T06:18:48;12.50;;;11.30;;
47239;SDS011;32978;53.586;10.052;2023-08-06T06:23:44;11.75;;;9.90;;
47239;SDS011;32978;53.586;10.052;2023-08-06T06:28:41;12.73;;;10.80;;
47239;SDS011;32978;53.586;10.052;2023-08-06T06:33:37;12.23;;;10.93;;
47239;SDS011;32978;53.586;10.052;2023-08-06T06:38:33;12.85;;;11.02;;
47239;SDS011;32978;53.586;10.052;2023-08-06T06:43:30;12.55;;;10.25;;
47239;SDS011;32978;53.586;10.052;2023-08-06T06:48:27;14.52;;;10.25;;
47239;SDS011;32978;53.586;10.052;2023-08-06T06:53:23;11.93;;;10.30;;
47239;SDS011;32978;53.586;10.052;2023-08-06T06:58:23;12.23;;;10.85;;
47239;SDS011;32978;53.586;10.052;2023-08-06T07:03:20;10.75;;;9.65;;
47239;SDS011;32978;53.586;10.052;2023-08-06T07:13:28;13.88;;;11.25;;
47239;SDS011;32978;53.586;10.052;2023-08-06T07:18:24;12.20;;;10.50;;
47239;SDS011;32978;53.586;10.052;2023-08-06T07:23:24;11.32;;;10.23;;
47239;SDS011;32978;53.586;10.052;2023-08-06T07:28:20;11.13;;;9.93;;
47239;SDS011;32978;53.586;10.052;2023-08-06T07:33:17;13.48;;;10.05;;
47239;SDS011;32978;53.586;10.052;2023-08-06T07:38:13;12.70;;;11.15;;
47239;SDS011;32978;53.586;10.052;2023-08-06T07:43:09;10.95;;;9.85;;
47239;SDS011;32978;53.586;10.052;2023-08-06T07:48:09;11.95;;;9.82;;
47239;SDS011;32978;53.586;10.052;2023-08-06T07:53:05;12.07;;;10.93;;
47239;SDS011;32978;53.586;10.052;2023-08-06T07:58:01;12.23;;;10.40;;
47239;SDS011;32978;53.586;10.052;2023-08-06T08:02:58;11.18;;;9.25;;
47239;SDS011;32978;53.586;10.052;2023-08-06T08:07:54;14.82;;;10.98;;
47239;SDS011;32978;53.586;10.052;2023-08-06T08:12:50;12.63;;;10.70;;
47239;SDS011;32978;53.586;10.052;2023-08-06T08:17:47;11.10;;;10.00;;
47239;SDS011;32978;53.586;10.052;2023-08-06T08:22:44;11.35;;;9.80;;
47239;SDS011;32978;53.586;10.052;2023-08-06T08:27:40;11.50;;;9.77;;
47239;SDS011;32978;53.586;10.052;2023-08-06T08:32:36;13.75;;;10.75;;
47239;SDS011;32978;53.586;10.052;2023-08-06T08:37:35;13.70;;;11.13;;
47239;SDS011;32978;53.586;10.052;2023-08-06T08:42:34;10.32;;;9.30;;
47239;SDS011;32978;53.586;10.052;2023-08-06T08:47:31;12.65;;;11.32;;
47239;SDS011;32978;53.586;10.052;2023-08-06T08:52:35;12.95;;;10.25;;
47239;SDS011;32978;53.586;10.052;2023-08-06T08:57:32;13.95;;;10.95;;
47239;SDS011;32978;53.586;10.052;2023-08-06T09:02:28;10.90;;;9.82;;
47239;SDS011;32978;53.586;10.052;2023-08-06T09:07:26;11.02;;;9.95;;
47239;SDS011;32978;53.586;10.052;2023-08-06T09:12:24;11.32;;;10.18;;
47239;SDS011;32978;53.586;10.052;2023-08-06T09:17:21;11.38;;;10.05;;
47239;SDS011;32978;53.586;10.052;2023-08-06T09:28:00;12.68;;;11.40;;
47239;SDS011;32978;53.586;10.052;2023-08-06T09:34:00;13.75;;;10.25;;
47239;SDS011;32978;53.586;10.052;2023-08-06T09:38:41;11.27;;;10.18;;
47239;SDS011;32978;53.586;10.052;2023-08-06T09:43:43;15.00;;;10.45;;
47239;SDS011;32978;53.586;10.052;2023-08-06T09:48:40;14.18;;;11.13;;
47239;SDS011;32978;53.586;10.052;2023-08-06T09:53:37;11.35;;;10.18;;
47239;SDS011;32978;53.586;10.052;2023-08-06T09:58:34;12.13;;;10.80;;
47239;SDS011;32978;53.586;10.052;2023-08-06T10:03:33;13.00;;;11.60;;
47239;SDS011;32978;53.586;10.052;2023-08-06T10:08:30;13.10;;;11.80;;
47239;SDS011;32978;53.586;10.052;2023-08-06T10:13:26;13.77;;;12.32;;
47239;SDS011;32978;53.586;10.052;2023-08-06T10:18:23;11.73;;;10.52;;
47239;SDS011;32978;53.586;10.052;2023-08-06T10:23:19;16.42;;;11.98;;
47239;SDS011;32978;53.586;10.052;2023-08-06T10:28:17;14.60;;;11.52;;
47239;SDS011;32978;53.586;10.052;2023-08-06T10:33:14;14.10;;;12.60;;
47239;SDS011;32978;53.586;10.052;2023-08-06T10:38:13;13.43;;;12.13;;
47239;SDS011;32978;53.586;10.052;2023-08-06T10:43:35;12.50;;;11.30;;
47239;SDS011;32978;53.586;10.052;2023-08-06T10:48:36;12.48;;;11.27;;
47239;SDS011;32978;53.586;10.052;2023-08-06T10:53:33;13.73;;;12.48;;
47239;SDS011;32978;53.586;10.052;2023-08-06T10:58:32;13.60;;;12.20;;
47239;SDS011;32978;53.586;10.052;2023-08-06T11:03:29;16.20;;;12.90;;
47239;SDS011;32978;53.586;10.052;2023-08-06T11:08:26;12.93;;;11.55;;
47239;SDS011;32978;53.586;10.052;2023-08-06T11:13:23;11.88;;;10.70;;
47239;SDS011;32978;53.586;10.052;2023-08-06T11:18:21;11.27;;;10.20;;
47239;SDS011;32978;53.586;10.052;2023-08-06T11:23:18;11.52;;;10.43;;
47239;SDS011;32978;53.586;10.052;2023-08-06T11:28:14;14.43;;;12.93;;
47239;SDS011;32978;53.586;10.052;2023-08-06T11:33:10;12.00;;;10.90;;
47239;SDS011;32978;53.586;10.052;2023-08-06T11:38:07;12.90;;;11.38;;
47239;SDS011;32978;53.586;10.052;2023-08-06T11:43:05;12.90;;;11.70;;
47239;SDS011;32978;53.586;10.052;2023-08-06T11:48:01;12.57;;;11.40;;
47239;SDS011;32978;53.586;10.052;2023-08-06T11:52:58;12.52;;;11.32;;
47239;SDS011;32978;53.586;10.052;2023-08-06T11:57:56;11.93;;;10.73;;
47239;SDS011;32978;53.586;10.052;2023-08-06T12:02:52;12.63;;;11.45;;
47239;SDS011;32978;53.586;10.052;2023-08-06T12:07:51;11.88;;;10.77;;
47239;SDS011;32978;53.586;10.052;2023-08-06T12:12:48;11.27;;;10.15;;
47239;SDS011;32978;53.586;10.052;2023-08-06T12:17:44;12.05;;;10.77;;
47239;SDS011;32978;53.586;10.052;2023-08-06T12:22:41;11.07;;;9.63;;
47239;SDS011;32978;53.586;10.052;2023-08-06T12:27:38;11.43;;;10.10;;
47239;SDS011;32978;53.586;10.052;2023-08-06T12:32:34;11.02;;;9.70;;
47239;SDS011;32978;53.586;10.052;2023-08-06T12:37:30;11.55;;;9.80;;
47239;SDS011;32978;53.586;10.052;2023-08-06T12:42:27;13.07;;;9.75;;
47239;SDS011;32978;53.586;10.052;2023-08-06T12:47:23;11.68;;;9.70;;
47239;SDS011;32978;53.586;10.052;2023-08-06T12:52:20;9.30;;;8.40;;
47239;SDS011;32978;53.586;10.052;2023-08-06T12:57:16;10.82;;;9.65;;
47239;SDS011;32978;53.586;10.052;2023-08-06T13:02:13;11.63;;;9.77;;
47239;SDS011;32978;53.586;10.052;2023-08-06T13:07:10;12.85;;;10.00;;
47239;SDS011;32978;53.586;10.052;2023-08-06T13:12:06;12.75;;;10.70;;
47239;SDS011;32978;53.586;10.052;2023-08-06T13:17:02;11.40;;;10.20;;
47239;SDS011;32978;53.586;10.052;2023-08-06T13:22:03;12.32;;;10.38;;
47239;SDS011;32978;53.586;10.052;2023-08-06T13:27:01;11.00;;;9.40;;
47239;SDS011;32978;53.586;10.052;2023-08-06T13:31:57;10.75;;;8.18;;
47239;SDS011;32978;53.586;10.052;2023-08-06T13:36:54;8.38;;;7.35;;
47239;SDS011;32978;53.586;10.052;2023-08-06T13:41:51;10.38;;;7.95;;
47239;SDS011;32978;53.586;10.052;2023-08-06T13:46:47;9.52;;;8.52;;
47239;SDS011;32978;53.586;10.052;2023-08-06T13:51:43;8.30;;;7.20;;
47239;SDS011;32978;53.586;10.052;2023-08-06T13:56:39;10.90;;;7.78;;
47239;SDS011;32978;53.586;10.052;2023-08-06T14:01:36;9.85;;;8.50;;
47239;SDS011;32978;53.586;10.052;2023-08-06T14:07:00;8.65;;;7.70;;
47239;SDS011;32978;53.586;10.052;2023-08-06T14:11:59;7.20;;;6.07;;
47239;SDS011;32978;53.586;10.052;2023-08-06T14:17:31;6.70;;;6.10;;
47239;SDS011;32978;53.586;10.052;2023-08-06T14:22:27;6.93;;;6.22;;
47239;SDS011;32978;53.586;10.052;2023-08-06T14:27:24;6.53;;;6.03;;
47239;SDS011;32978;53.586;10.052;2023-08-06T14:32:20;7.72;;;5.72;;
47239;SDS011;32978;53.586;10.052;2023-08-06T14:37:17;6.45;;;5.85;;
47239;SDS011;32978;53.586;10.052;2023-08-06T14:42:13;6.93;;;6.05;;
47239;SDS011;32978;53.586;10.052;2023-08-06T14:47:10;6.95;;;6.22;;
47239;SDS011;32978;53.586;10.052;2023-08-06T14:52:06;6.85;;;5.97;;
47239;SDS011;32978;53.586;10.052;2023-08-06T14:57:02;6.32;;;5.43;;
47239;SDS011;32978;53.586;10.052;2023-08-06T15:01:59;7.72;;;5.50;;
47239;SDS011;32978;53.586;10.052;2023-08-06T15:06:55;5.97;;;4.97;;
47239;SDS011;32978;53.586;10.052;2023-08-06T15:11:52;7.00;;;6.28;;
47239;SDS011;32978;53.586;10.052;2023-08-06T15:16:48;6.65;;;5.70;;
47239;SDS011;32978;53.586;10.052;2023-08-06T15:21:47;6.50;;;5.88;;
47239;SDS011;32978;53.586;10.052;2023-08-06T15:26:43;6.55;;;5.22;;
47239;SDS011;32978;53.586;10.052;2023-08-06T15:31:39;6.50;;;5.70;;
47239;SDS011;32978;53.586;10.052;2023-08-06T15:36:36;10.38;;;6.57;;
47239;SDS011;32978;53.586;10.052;2023-08-06T15:41:33;7.57;;;5.80;;
47239;SDS011;32978;53.586;10.052;2023-08-06T15:46:29;7.05;;;5.70;;
47239;SDS011;32978;53.586;10.052;2023-08-06T15:51:25;6.45;;;5.72;;
47239;SDS011;32978;53.586;10.052;2023-08-06T15:56:22;7.40;;;6.20;;
47239;SDS011;32978;53.586;10.052;2023-08-06T16:01:18;7.72;;;5.68;;
47239;SDS011;32978;53.586;10.052;2023-08-06T16:06:14;8.60;;;5.60;;
47239;SDS011;32978;53.586;10.052;2023-08-06T16:11:11;7.07;;;5.95;;
47239;SDS011;32978;53.586;10.052;2023-08-06T16:16:07;6.80;;;6.15;;
47239;SDS011;32978;53.586;10.052;2023-08-06T16:21:03;9.48;;;5.38;;
47239;SDS011;32978;53.586;10.052;2023-08-06T16:26:00;6.30;;;5.70;;
47239;SDS011;32978;53.586;10.052;2023-08-06T16:30:56;6.82;;;5.82;;
47239;SDS011;32978;53.586;10.052;2023-08-06T16:35:55;5.82;;;5.22;;
47239;SDS011;32978;53.586;10.052;2023-08-06T16:40:52;8.77;;;6.00;;
47239;SDS011;32978;53.586;10.052;2023-08-06T16:45:49;7.05;;;6.35;;
47239;SDS011;32978;53.586;10.052;2023-08-06T16:50:47;6.63;;;5.43;;
47239;SDS011;32978;53.586;10.052;2023-08-06T16:55:44;7.63;;;6.30;;
47239;SDS011;32978;53.586;10.052;2023-08-06T17:00:40;6.25;;;5.35;;
47239;SDS011;32978;53.586;10.052;2023-08-06T17:05:46;11.60;;;5.97;;
47239;SDS011;32978;53.586;10.052;2023-08-06T17:10:42;7.78;;;6.35;;
47239;SDS011;32978;53.586;10.052;2023-08-06T17:15:41;7.75;;;5.78;;
47239;SDS011;32978;53.586;10.052;2023-08-06T17:20:40;6.63;;;5.82;;
47239;SDS011;32978;53.586;10.052;2023-08-06T17:25:36;6.88;;;6.28;;
47239;SDS011;32978;53.586;10.052;2023-08-06T17:30:32;9.27;;;6.18;;
47239;SDS011;32978;53.586;10.052;2023-08-06T17:35:29;6.70;;;6.00;;
47239;SDS011;32978;53.586;10.052;2023-08-06T17:40:26;7.03;;;6.13;;
47239;SDS011;32978;53.586;10.052;2023-08-06T17:45:23;7.43;;;6.07;;
47239;SDS011;32978;53.586;10.052;2023-08-06T17:50:20;6.90;;;5.90;;
47239;SDS011;32978;53.586;10.052;2023-08-06T17:55:16;9.90;;;6.32;;
47239;SDS011;32978;53.586;10.052;2023-08-06T18:00:12;7.88;;;6.38;;
47239;SDS011;32978;53.586;10.052;2023-08-06T18:05:09;8.55;;;6.47;;
47239;SDS011;32978;53.586;10.052;2023-08-06T18:10:10;6.87;;;6.27;;
47239;SDS011;32978;53.586;10.052;2023-08-06T18:15:07;7.35;;;6.07;;
47239;SDS011;32978;53.586;10.052;2023-08-06T18:20:04;7.10;;;6.50;;
47239;SDS011;32978;53.586;10.052;2023-08-06T18:25:01;8.15;;;6.95;;
47239;SDS011;32978;53.586;10.052;2023-08-06T18:30:00;8.43;;;6.05;;
47239;SDS011;32978;53.586;10.052;2023-08-06T18:34:57;6.50;;;5.90;;
47239;SDS011;32978;53.586;10.052;2023-08-06T18:39:53;6.47;;;5.88;;
47239;SDS011;32978;53.586;10.052;2023-08-06T18:44:57;7.82;;;6.00;;
47239;SDS011;32978;53.586;10.052;2023-08-06T18:49:54;9.95;;;6.47;;
47239;SDS011;32978;53.586;10.052;2023-08-06T18:54:53;8.57;;;6.38;;
47239;SDS011;32978;53.586;10.052;2023-08-06T18:59:50;8.68;;;6.82;;
47239;SDS011;32978;53.586;10.052;2023-08-06T19:04:48;7.85;;;6.43;;
47239;SDS011;32978;53.586;10.052;2023-08-06T19:09:47;12.82;;;8.18;;
47239;SDS011;32978;53.586;10.052;2023-08-06T19:14:44;7.28;;;6.35;;
47239;SDS011;32978;53.586;10.052;2023-08-06T19:19:40;7.55;;;6.57;;
47239;SDS011;32978;53.586;10.052;2023-08-06T19:24:40;10.35;;;7.78;;
47239;SDS011;32978;53.586;10.052;2023-08-06T19:29:36;8.35;;;6.80;;
47239;SDS011;32978;53.586;10.052;2023-08-06T19:34:33;8.25;;;6.55;;
47239;SDS011;32978;53.586;10.052;2023-08-06T19:39:29;9.60;;;7.00;;
47239;SDS011;32978;53.586;10.052;2023-08-06T19:44:26;11.82;;;7.93;;
47239;SDS011;32978;53.586;10.052;2023-08-06T19:49:22;10.57;;;8.13;;
47239;SDS011;32978;53.586;10.052;2023-08-06T19:54:21;9.65;;;7.82;;
47239;SDS011;32978;53.586;10.052;2023-08-06T19:59:17;9.20;;;7.57;;
47239;SDS011;32978;53.586;10.052;2023-08-06T20:04:16;11.65;;;8.90;;
47239;SDS011;32978;53.586;10.052;2023-08-06T20:09:12;14.65;;;8.63;;
47239;SDS011;32978;53.586;10.052;2023-08-06T20:14:09;12.10;;;8.82;;
47239;SDS011;32978;53.586;10.052;2023-08-06T20:19:05;16.45;;;10.45;;
47239;SDS011;32978;53.586;10.052;2023-08-06T20:24:01;12.00;;;9.00;;
47239;SDS011;32978;53.586;10.052;2023-08-06T20:28:58;10.88;;;7.93;;
47239;SDS011;32978;53.586;10.052;2023-08-06T20:33:59;8.43;;;6.95;;
47239;SDS011;32978;53.586;10.052;2023-08-06T20:38:56;8.40;;;6.97;;
47239;SDS011;32978;53.586;10.052;2023-08-06T20:43:52;7.85;;;7.07;;
47239;SDS011;32978;53.586;10.052;2023-08-06T20:48:48;7.18;;;6.55;;
47239;SDS011;32978;53.586;10.052;2023-08-06T20:53:45;10.60;;;6.80;;
47239;SDS011;32978;53.586;10.052;2023-08-06T20:58:41;7.10;;;6.13;;
47239;SDS011;32978;53.586;10.052;2023-08-06T21:03:38;8.65;;;6.45;;
47239;SDS011;32978;53.586;10.052;2023-08-06T21:08:35;8.13;;;6.18;;
47239;SDS011;32978;53.586;10.052;2023-08-06T21:13:32;9.52;;;6.32;;
47239;SDS011;32978;53.586;10.052;2023-08-06T21:18:32;6.95;;;6.30;;
47239;SDS011;32978;53.586;10.052;2023-08-06T21:23:28;7.38;;;6.05;;
47239;SDS011;32978;53.586;10.052;2023-08-06T21:28:26;6.38;;;5.78;;
47239;SDS011;32978;53.586;10.052;2023-08-06T21:33:26;11.15;;;6.55;;
47239;SDS011;32978;53.586;10.052;2023-08-06T21:38:26;6.10;;;5.50;;
47239;SDS011;32978;53.586;10.052;2023-08-06T21:43:23;7.80;;;6.15;;
47239;SDS011;32978;53.586;10.052;2023-08-06T21:48:19;6.22;;;5.63;;
47239;SDS011;32978;53.586;10.052;2023-08-06T21:53:16;6.18;;;5.18;;
47239;SDS011;32978;53.586;10.052;2023-08-06T21:58:15;6.68;;;6.07;;
47239;SDS011;32978;53.586;10.052;2023-08-06T22:03:11;8.73;;;6.28;;
47239;SDS011;32978;53.586;10.052;2023-08-06T22:08:08;8.43;;;5.95;;
47239;SDS011;32978;53.586;10.052;2023-08-06T22:13:04;7.18;;;5.97;;
47239;SDS011;32978;53.586;10.052;2023-08-06T22:18:00;6.40;;;5.80;;
47239;SDS011;32978;53.586;10.052;2023-08-06T22:22:58;7.75;;;6.38;;
47239;SDS011;32978;53.586;10.052;2023-08-06T22:27:54;7.00;;;5.57;;
47239;SDS011;32978;53.586;10.052;2023-08-06T22:32:51;7.25;;;6.00;;
47239;SDS011;32978;53.586;10.052;2023-08-06T22:37:47;6.82;;;6.10;;
47239;SDS011;32978;53.586;10.052;2023-08-06T22:42:44;7.00;;;5.53;;
47239;SDS011;32978;53.586;10.052;2023-08-06T22:47:41;6.10;;;5.55;;
47239;SDS011;32978;53.586;10.052;2023-08-06T22:52:37;6.72;;;6.07;;
47239;SDS011;32978;53.586;10.052;2023-08-06T22:57:34;6.63;;;5.78;;
47239;SDS011;32978;53.586;10.052;2023-08-06T23:02:31;6.75;;;5.70;;
47239;SDS011;32978;53.586;10.052;2023-08-06T23:07:27;7.00;;;6.03;;
47239;SDS011;32978;53.586;10.052;2023-08-06T23:12:24;6.70;;;6.05;;
47239;SDS011;32978;53.586;10.052;2023-08-06T23:17:20;7.03;;;6.32;;
47239;SDS011;32978;53.586;10.052;2023-08-06T23:22:16;8.80;;;5.93;;
47239;SDS011;32978;53.586;10.052;2023-08-06T23:27:12;6.18;;;5.60;;
47239;SDS011;32978;53.586;10.052;2023-08-06T23:32:09;7.00;;;6.05;;
47239;SDS011;32978;53.586;10.052;2023-08-06T23:37:05;7.75;;;5.35;;
47239;SDS011;32978;53.586;10.052;2023-08-06T23:42:01;6.35;;;5.75;;
47239;SDS011;32978;53.586;10.052;2023-08-06T23:46:58;7.00;;;5.18;;
47239;SDS011;32978;53.586;10.052;2023-08-06T23:51:54;7.20;;;5.30;;
47239;SDS011;32978;53.586;10.052;2023-08-06T23:56:51;7.45;;;6.20;;
